createdAt,value
2022-12-24T00:01:30.671Z,12.90
2022-12-24T00:03:57.126Z,12.90
2022-12-24T00:06:24.053Z,12.90
2022-12-24T00:08:50.537Z,12.80
2022-12-24T00:11:17.036Z,12.80
2022-12-24T00:13:43.561Z,12.90
2022-12-24T00:16:10.052Z,12.90
2022-12-24T00:18:41.522Z,12.80
2022-12-24T00:21:11.856Z,12.80
2022-12-24T00:23:38.334Z,12.70
2022-12-24T00:26:04.784Z,12.70
2022-12-24T00:28:31.261Z,12.60
2022-12-24T00:30:57.771Z,12.70
2022-12-24T00:33:24.754Z,12.80
2022-12-24T00:35:51.415Z,12.70
2022-12-24T00:38:17.881Z,12.60
2022-12-24T00:40:44.358Z,12.60
2022-12-24T00:43:10.824Z,12.60
2022-12-24T00:45:37.319Z,12.70
2022-12-24T00:48:03.788Z,12.70
2022-12-24T00:50:30.274Z,12.60
2022-12-24T00:52:56.733Z,12.60
2022-12-24T00:55:23.255Z,12.70
2022-12-24T00:57:49.729Z,12.60
2022-12-24T01:00:16.231Z,12.60
2022-12-24T01:02:42.848Z,12.50
2022-12-24T01:05:09.411Z,12.50
2022-12-24T01:07:35.896Z,12.50
2022-12-24T01:10:02.452Z,12.50
2022-12-24T01:12:28.948Z,12.50
2022-12-24T01:14:55.442Z,12.50
2022-12-24T01:17:21.943Z,12.40
2022-12-24T01:19:54.143Z,12.40
2022-12-24T01:22:20.635Z,12.40
2022-12-24T01:24:47.119Z,12.40
2022-12-24T01:27:13.595Z,12.40
2022-12-24T01:29:40.072Z,12.40
2022-12-24T01:32:06.542Z,12.50
2022-12-24T01:34:33.003Z,12.50
2022-12-24T01:36:59.456Z,12.30
2022-12-24T01:39:25.949Z,12.40
2022-12-24T01:41:52.435Z,12.40
2022-12-24T01:44:18.895Z,12.40
2022-12-24T01:46:45.479Z,12.30
2022-12-24T01:49:11.969Z,12.40
2022-12-24T01:51:38.514Z,12.40
2022-12-24T01:54:04.989Z,12.40
2022-12-24T01:56:31.461Z,12.40
2022-12-24T01:58:57.947Z,12.50
2022-12-24T02:01:24.490Z,12.50
2022-12-24T02:03:51.130Z,12.40
2022-12-24T02:06:17.643Z,12.40
2022-12-24T02:08:44.122Z,12.50
2022-12-24T02:11:10.613Z,12.50
2022-12-24T02:13:37.097Z,12.40
2022-12-24T02:16:04.119Z,12.40
2022-12-24T02:18:30.622Z,12.40
2022-12-24T02:20:57.229Z,12.40
2022-12-24T02:23:23.704Z,12.40
2022-12-24T02:25:50.207Z,12.40
2022-12-24T02:28:16.668Z,12.40
2022-12-24T02:30:43.247Z,12.20
2022-12-24T02:33:09.711Z,12.20
2022-12-24T02:35:36.204Z,12.20
2022-12-24T02:38:02.674Z,12.30
2022-12-24T02:40:29.160Z,12.30
2022-12-24T02:42:55.646Z,12.30
2022-12-24T02:45:22.127Z,12.10
2022-12-24T02:47:48.625Z,12.20
2022-12-24T02:50:15.115Z,12.10
2022-12-24T02:52:41.590Z,12.00
2022-12-24T02:55:09.190Z,12.20
2022-12-24T02:57:35.669Z,12.30
2022-12-24T03:00:02.161Z,12.20
2022-12-24T03:02:28.775Z,12.20
2022-12-24T03:04:55.418Z,12.10
2022-12-24T03:07:21.881Z,12.20
2022-12-24T03:09:48.358Z,12.20
2022-12-24T03:12:14.830Z,12.20
2022-12-24T03:14:41.280Z,12.00
2022-12-24T03:17:07.778Z,12.10
2022-12-24T03:19:34.248Z,12.10
2022-12-24T03:22:00.740Z,12.10
2022-12-24T03:24:27.224Z,12.20
2022-12-24T03:26:53.708Z,12.20
2022-12-24T03:29:20.170Z,12.20
2022-12-24T03:31:46.755Z,12.30
2022-12-24T03:34:13.255Z,12.30
2022-12-24T03:36:39.752Z,12.30
2022-12-24T03:39:06.224Z,12.30
2022-12-24T03:41:32.716Z,12.30
2022-12-24T03:43:59.183Z,12.40
2022-12-24T03:46:25.711Z,12.50
2022-12-24T03:48:52.299Z,12.30
2022-12-24T03:51:18.832Z,12.20
2022-12-24T03:53:45.322Z,12.30
2022-12-24T03:56:11.887Z,12.30
2022-12-24T03:58:38.379Z,12.30
2022-12-24T04:01:04.949Z,12.40
2022-12-24T04:03:31.568Z,12.40
2022-12-24T04:05:58.165Z,12.40
2022-12-24T04:08:24.630Z,12.40
2022-12-24T04:10:51.110Z,12.30
2022-12-24T04:13:17.589Z,12.30
2022-12-24T04:15:44.081Z,12.40
2022-12-24T04:18:10.562Z,12.40
2022-12-24T04:20:37.049Z,12.30
2022-12-24T04:23:03.531Z,12.40
2022-12-24T04:25:30.070Z,12.50
2022-12-24T04:27:56.539Z,12.40
2022-12-24T04:30:23.027Z,12.40
2022-12-24T04:32:49.531Z,12.50
2022-12-24T04:35:16.040Z,12.40
2022-12-24T04:37:42.540Z,12.20
2022-12-24T04:40:09.022Z,12.30
2022-12-24T04:42:35.483Z,12.40
2022-12-24T04:45:01.981Z,12.40
2022-12-24T04:47:28.511Z,12.50
2022-12-24T04:49:54.992Z,12.40
2022-12-24T04:52:21.464Z,12.30
2022-12-24T04:54:47.952Z,12.30
2022-12-24T04:57:14.425Z,12.30
2022-12-24T04:59:40.896Z,12.40
2022-12-24T05:02:07.504Z,12.40
2022-12-24T05:04:34.062Z,12.30
2022-12-24T05:07:00.558Z,12.30
2022-12-24T05:09:27.037Z,12.20
2022-12-24T05:11:53.516Z,12.30
2022-12-24T05:14:20.012Z,12.20
2022-12-24T05:16:46.542Z,12.20
2022-12-24T05:19:18.493Z,12.20
2022-12-24T05:21:44.976Z,12.30
2022-12-24T05:24:11.432Z,12.30
2022-12-24T05:26:37.914Z,12.40
2022-12-24T05:29:06.334Z,12.50
2022-12-24T05:31:32.820Z,12.40
2022-12-24T05:33:59.290Z,12.40
2022-12-24T05:36:25.777Z,12.30
2022-12-24T05:38:52.260Z,12.40
2022-12-24T05:41:18.835Z,12.50
2022-12-24T05:43:45.317Z,12.40
2022-12-24T05:46:11.868Z,12.40
2022-12-24T05:48:38.357Z,12.40
2022-12-24T05:51:04.832Z,12.40
2022-12-24T05:53:31.297Z,12.40
2022-12-24T05:55:57.794Z,12.40
2022-12-24T05:58:24.264Z,12.40
2022-12-24T06:00:50.748Z,12.30
2022-12-24T06:03:17.226Z,12.50
2022-12-24T06:05:43.719Z,12.40
2022-12-24T06:08:10.199Z,12.50
2022-12-24T06:10:36.688Z,12.40
2022-12-24T06:13:03.156Z,12.40
2022-12-24T06:15:29.644Z,12.50
2022-12-24T06:17:56.139Z,12.40
2022-12-24T06:20:22.635Z,12.30
2022-12-24T06:22:49.106Z,12.30
2022-12-24T06:25:15.562Z,12.40
2022-12-24T06:27:42.043Z,12.50
2022-12-24T06:30:08.514Z,12.50
2022-12-24T06:32:35.023Z,12.30
2022-12-24T06:35:01.487Z,12.30
2022-12-24T06:37:27.960Z,12.40
2022-12-24T06:39:54.424Z,12.40
2022-12-24T06:42:20.908Z,12.40
2022-12-24T06:44:47.381Z,12.40
2022-12-24T06:47:13.869Z,12.40
2022-12-24T06:49:40.340Z,12.50
2022-12-24T06:52:06.828Z,12.30
2022-12-24T06:54:33.332Z,12.40
2022-12-24T06:56:59.812Z,12.30
2022-12-24T06:59:26.268Z,12.40
2022-12-24T07:01:52.941Z,12.50
2022-12-24T07:04:20.734Z,12.40
2022-12-24T07:06:47.382Z,12.40
2022-12-24T07:09:13.861Z,12.40
2022-12-24T07:11:40.343Z,12.30
2022-12-24T07:14:06.824Z,12.30
2022-12-24T07:16:33.314Z,12.40
2022-12-24T07:18:59.839Z,12.40
2022-12-24T07:21:26.315Z,12.40
2022-12-24T07:23:52.781Z,12.40
2022-12-24T07:26:19.236Z,12.50
2022-12-24T07:28:45.709Z,12.50
2022-12-24T07:31:12.317Z,12.50
2022-12-24T07:33:38.860Z,12.50
2022-12-24T07:36:05.341Z,12.30
2022-12-24T07:38:31.816Z,12.30
2022-12-24T07:40:58.288Z,12.30
2022-12-24T07:43:24.752Z,12.30
2022-12-24T07:45:51.249Z,12.40
2022-12-24T07:48:17.726Z,12.40
2022-12-24T07:50:44.212Z,12.40
2022-12-24T07:53:10.663Z,12.50
2022-12-24T07:55:37.167Z,12.50
2022-12-24T07:58:03.634Z,12.40
2022-12-24T08:00:30.128Z,12.40
2022-12-24T08:02:56.712Z,12.40
2022-12-24T08:05:23.321Z,12.30
2022-12-24T08:07:49.863Z,12.30
2022-12-24T08:10:16.333Z,12.30
2022-12-24T08:12:42.812Z,12.30
2022-12-24T08:15:09.279Z,12.40
2022-12-24T08:17:35.772Z,12.30
2022-12-24T08:20:02.274Z,12.20
2022-12-24T08:22:28.766Z,12.10
2022-12-24T08:24:55.231Z,12.20
2022-12-24T08:27:21.716Z,12.10
2022-12-24T08:29:48.205Z,12.30
2022-12-24T08:32:14.698Z,12.30
2022-12-24T08:34:42.463Z,12.40
2022-12-24T08:37:08.973Z,12.30
2022-12-24T08:39:35.455Z,12.40
2022-12-24T08:42:06.601Z,12.40
2022-12-24T08:44:33.135Z,12.40
2022-12-24T08:46:59.634Z,12.40
2022-12-24T08:49:26.104Z,12.20
2022-12-24T08:51:52.601Z,12.20
2022-12-24T08:54:19.071Z,12.20
2022-12-24T08:56:45.587Z,12.30
2022-12-24T08:59:12.061Z,12.30
2022-12-24T09:01:38.651Z,12.20
2022-12-24T09:04:05.168Z,12.30
2022-12-24T09:06:31.674Z,12.30
2022-12-24T09:08:58.149Z,12.20
2022-12-24T09:11:24.627Z,12.30
2022-12-24T09:13:51.100Z,12.40
2022-12-24T09:16:17.626Z,12.40
2022-12-24T09:18:44.092Z,12.50
2022-12-24T09:21:10.601Z,12.40
2022-12-24T09:23:37.065Z,12.40
2022-12-24T09:26:03.565Z,12.40
2022-12-24T09:28:30.078Z,12.50
2022-12-24T09:30:56.578Z,12.40
2022-12-24T09:33:24.541Z,12.40
2022-12-24T09:35:51.052Z,12.30
2022-12-24T09:38:17.516Z,12.40
2022-12-24T09:40:44.020Z,12.40
2022-12-24T09:43:10.486Z,12.50
2022-12-24T09:45:37.038Z,12.50
2022-12-24T09:48:03.583Z,12.50
2022-12-24T09:50:30.064Z,12.40
2022-12-24T09:52:56.545Z,12.40
2022-12-24T09:55:23.014Z,12.40
2022-12-24T09:57:49.491Z,12.50
2022-12-24T10:00:18.541Z,12.50
2022-12-24T10:02:45.224Z,12.50
2022-12-24T10:05:11.795Z,12.50
2022-12-24T10:07:38.273Z,12.50
2022-12-24T10:10:04.733Z,12.50
2022-12-24T10:12:31.192Z,12.50
2022-12-24T10:14:57.666Z,12.50
2022-12-24T10:17:24.157Z,12.50
2022-12-24T10:19:50.626Z,12.50
2022-12-24T10:22:17.105Z,12.40
2022-12-24T10:24:50.049Z,12.40
2022-12-24T10:27:17.185Z,12.50
2022-12-24T10:29:43.641Z,12.50
2022-12-24T10:32:10.129Z,12.50
2022-12-24T10:34:36.613Z,12.60
2022-12-24T10:37:03.180Z,12.50
2022-12-24T10:39:29.668Z,12.60
2022-12-24T10:41:56.158Z,12.50
2022-12-24T10:44:22.611Z,12.60
2022-12-24T10:46:49.155Z,12.60
2022-12-24T10:49:15.645Z,12.60
2022-12-24T10:51:42.161Z,12.60
2022-12-24T10:54:08.641Z,12.60
2022-12-24T10:56:35.136Z,12.70
2022-12-24T10:59:01.628Z,12.70
2022-12-24T11:01:28.236Z,12.70
2022-12-24T11:03:54.840Z,12.70
2022-12-24T11:06:21.425Z,12.70
2022-12-24T11:08:47.947Z,12.60
2022-12-24T11:11:14.423Z,12.50
2022-12-24T11:13:40.931Z,12.50
2022-12-24T11:16:07.644Z,12.60
2022-12-24T11:18:34.209Z,12.50
2022-12-24T11:21:00.689Z,12.60
2022-12-24T11:23:27.173Z,12.60
2022-12-24T11:25:53.639Z,12.70
2022-12-24T11:28:20.105Z,12.70
2022-12-24T11:30:46.654Z,12.60
2022-12-24T11:33:13.203Z,12.70
2022-12-24T11:35:39.685Z,12.80
2022-12-24T11:38:06.172Z,12.70
2022-12-24T11:40:32.644Z,12.60
2022-12-24T11:42:59.153Z,12.70
2022-12-24T11:45:25.621Z,12.70
2022-12-24T11:47:52.173Z,12.70
2022-12-24T11:50:19.006Z,12.80
2022-12-24T11:52:45.501Z,12.80
2022-12-24T11:55:15.907Z,12.70
2022-12-24T11:57:43.155Z,12.70
2022-12-24T12:00:09.628Z,12.70
2022-12-24T12:02:36.692Z,12.70
2022-12-24T12:05:03.133Z,12.70
2022-12-24T12:07:29.605Z,12.70
2022-12-24T12:09:56.102Z,12.70
2022-12-24T12:12:22.581Z,12.70
2022-12-24T12:14:49.080Z,12.80
2022-12-24T12:17:16.112Z,12.80
2022-12-24T12:19:42.607Z,12.80
2022-12-24T12:22:09.093Z,12.80
2022-12-24T12:24:35.571Z,12.80
2022-12-24T12:27:02.051Z,12.70
2022-12-24T12:29:28.527Z,12.70
2022-12-24T12:31:55.094Z,12.70
2022-12-24T12:34:24.690Z,12.60
2022-12-24T12:36:51.165Z,12.60
2022-12-24T12:39:17.663Z,12.60
2022-12-24T12:41:44.131Z,12.70
2022-12-24T12:44:10.605Z,12.70
2022-12-24T12:46:37.123Z,12.70
2022-12-24T12:49:03.635Z,12.70
2022-12-24T12:51:30.093Z,12.50
2022-12-24T12:53:56.574Z,12.60
2022-12-24T12:56:23.049Z,12.60
2022-12-24T12:58:49.578Z,12.60
2022-12-24T13:01:16.210Z,12.50
2022-12-24T13:03:42.717Z,12.60
2022-12-24T13:06:12.717Z,12.70
2022-12-24T13:08:39.188Z,12.70
2022-12-24T13:11:05.668Z,12.70
2022-12-24T13:13:32.130Z,12.70
2022-12-24T13:15:58.645Z,12.70
2022-12-24T13:18:25.115Z,12.60
2022-12-24T13:20:51.580Z,12.70
2022-12-24T13:23:18.060Z,12.70
2022-12-24T13:25:44.543Z,12.60
2022-12-24T13:28:10.997Z,12.60
2022-12-24T13:30:37.481Z,12.70
2022-12-24T13:33:03.972Z,12.80
2022-12-24T13:35:36.923Z,12.70
2022-12-24T13:38:03.887Z,12.70
2022-12-24T13:40:30.402Z,12.80
2022-12-24T13:42:56.854Z,12.70
2022-12-24T13:45:23.331Z,12.70
2022-12-24T13:47:49.865Z,12.70
2022-12-24T13:50:18.715Z,12.70
2022-12-24T13:52:45.195Z,12.70
2022-12-24T13:55:11.676Z,12.80
2022-12-24T13:57:38.155Z,12.80
2022-12-24T14:00:04.626Z,12.70
2022-12-24T14:02:31.169Z,12.90
2022-12-24T14:04:57.657Z,12.80
2022-12-24T14:07:24.144Z,12.80
2022-12-24T14:09:50.607Z,12.80
2022-12-24T14:12:17.542Z,12.80
2022-12-24T14:14:45.984Z,12.70
2022-12-24T14:17:12.462Z,12.70
2022-12-24T14:19:38.939Z,12.70
2022-12-24T14:22:05.393Z,12.70
2022-12-24T14:24:31.860Z,12.60
2022-12-24T14:26:58.327Z,12.70
2022-12-24T14:29:25.277Z,12.60
2022-12-24T14:31:51.916Z,12.70
2022-12-24T14:34:18.437Z,12.60
2022-12-24T14:36:44.915Z,12.60
2022-12-24T14:39:11.391Z,12.70
2022-12-24T14:41:37.867Z,12.70
2022-12-24T14:44:04.334Z,12.80
2022-12-24T14:46:30.923Z,12.70
2022-12-24T14:48:57.444Z,12.60
2022-12-24T14:51:23.979Z,12.50
2022-12-24T14:53:50.484Z,12.50
2022-12-24T14:56:17.012Z,12.60
2022-12-24T14:58:43.489Z,12.60
2022-12-24T15:01:10.082Z,12.60
2022-12-24T15:03:36.714Z,12.60
2022-12-24T15:06:03.265Z,12.50
2022-12-24T15:08:29.764Z,12.50
2022-12-24T15:10:56.236Z,12.60
2022-12-24T15:13:22.717Z,12.60
2022-12-24T15:15:52.579Z,12.50
2022-12-24T15:18:19.554Z,12.60
2022-12-24T15:20:46.038Z,12.70
2022-12-24T15:23:12.536Z,12.70
2022-12-24T15:25:39.013Z,12.70
2022-12-24T15:28:05.509Z,12.70
2022-12-24T15:30:32.035Z,12.70
2022-12-24T15:32:58.613Z,12.60
2022-12-24T15:35:25.074Z,12.50
2022-12-24T15:37:51.549Z,12.60
2022-12-24T15:40:18.023Z,12.50
2022-12-24T15:42:48.853Z,12.50
2022-12-24T15:45:15.619Z,12.50
2022-12-24T15:47:43.103Z,12.60
2022-12-24T15:50:09.576Z,12.60
2022-12-24T15:52:36.059Z,12.60
2022-12-24T15:55:02.522Z,12.60
2022-12-24T15:57:29.020Z,12.40
2022-12-24T15:59:55.497Z,12.50
2022-12-24T16:02:22.089Z,12.50
2022-12-24T16:04:48.727Z,12.50
2022-12-24T16:07:15.225Z,12.60
2022-12-24T16:09:41.696Z,12.60
2022-12-24T16:12:08.194Z,12.40
2022-12-24T16:14:34.678Z,12.50
2022-12-24T16:17:01.156Z,12.60
2022-12-24T16:19:27.589Z,12.50
2022-12-24T16:21:54.063Z,12.40
2022-12-24T16:24:20.547Z,12.40
2022-12-24T16:26:47.031Z,12.40
2022-12-24T16:29:13.514Z,12.40
2022-12-24T16:31:40.042Z,12.30
2022-12-24T16:34:06.565Z,12.50
2022-12-24T16:36:33.061Z,12.50
2022-12-24T16:38:59.537Z,12.50
2022-12-24T16:41:26.004Z,12.50
2022-12-24T16:43:52.479Z,12.40
2022-12-24T16:46:19.003Z,12.40
2022-12-24T16:48:45.497Z,12.30
2022-12-24T16:51:11.972Z,12.40
2022-12-24T16:53:38.447Z,12.40
2022-12-24T16:56:05.166Z,12.40
2022-12-24T16:58:31.652Z,12.40
2022-12-24T17:00:58.115Z,12.50
2022-12-24T17:03:24.761Z,12.40
2022-12-24T17:05:51.402Z,12.40
2022-12-24T17:08:17.874Z,12.40
2022-12-24T17:10:44.347Z,12.40
2022-12-24T17:13:10.823Z,12.40
2022-12-24T17:15:37.346Z,12.30
2022-12-24T17:18:03.899Z,12.30
2022-12-24T17:20:30.393Z,12.30
2022-12-24T17:22:56.856Z,12.40
2022-12-24T17:25:23.337Z,12.30
2022-12-24T17:27:49.808Z,12.30
2022-12-24T17:30:16.330Z,12.40
2022-12-24T17:32:42.861Z,12.30
2022-12-24T17:35:09.391Z,12.40
2022-12-24T17:37:35.852Z,12.30
2022-12-24T17:40:02.363Z,12.20
2022-12-24T17:42:28.823Z,12.20
2022-12-24T17:44:55.316Z,12.30
2022-12-24T17:47:21.808Z,12.30
2022-12-24T17:49:48.285Z,12.50
2022-12-24T17:52:14.733Z,12.40
2022-12-24T17:54:41.227Z,12.40
2022-12-24T17:57:07.694Z,12.60
2022-12-24T17:59:34.195Z,12.40
2022-12-24T18:02:00.855Z,12.40
2022-12-24T18:04:27.445Z,12.40
2022-12-24T18:06:59.653Z,12.60
2022-12-24T18:09:28.811Z,12.70
2022-12-24T18:11:55.303Z,12.60
2022-12-24T18:14:21.776Z,12.70
2022-12-24T18:16:49.055Z,12.70
2022-12-24T18:19:19.095Z,12.80
2022-12-24T18:21:45.574Z,12.80
2022-12-24T18:24:12.042Z,12.70
2022-12-24T18:26:38.511Z,12.70
2022-12-24T18:29:04.955Z,12.70
2022-12-24T18:31:31.509Z,12.70
2022-12-24T18:33:58.005Z,12.60
2022-12-24T18:36:24.479Z,12.60
2022-12-24T18:38:50.963Z,12.50
2022-12-24T18:41:17.478Z,12.50
2022-12-24T18:43:43.950Z,12.60
2022-12-24T18:46:10.507Z,12.50
2022-12-24T18:48:37.032Z,12.40
2022-12-24T18:51:03.511Z,12.40
2022-12-24T18:53:30.005Z,12.30
2022-12-24T18:55:56.480Z,12.40
2022-12-24T18:58:22.962Z,12.40
2022-12-24T19:00:49.451Z,12.50
2022-12-24T19:03:16.718Z,12.50
2022-12-24T19:05:43.405Z,12.40
2022-12-24T19:08:37.763Z,12.30
2022-12-24T19:10:56.324Z,12.40
2022-12-24T19:13:22.804Z,12.30
2022-12-24T19:15:49.299Z,12.40
2022-12-24T19:18:15.781Z,12.40
2022-12-24T19:20:42.266Z,12.40
2022-12-24T19:23:08.722Z,12.40
2022-12-24T19:25:35.199Z,12.50
2022-12-24T19:28:01.670Z,12.60
2022-12-24T19:30:28.168Z,12.70
2022-12-24T19:32:54.646Z,12.70
2022-12-24T19:35:21.150Z,12.70
2022-12-24T19:37:47.641Z,12.80
2022-12-24T19:40:14.160Z,12.80
2022-12-24T19:42:40.632Z,12.80
2022-12-24T19:45:07.121Z,12.80
2022-12-24T19:47:33.596Z,12.80
2022-12-24T19:50:00.108Z,12.70
2022-12-24T19:52:31.064Z,12.70
2022-12-24T19:55:01.249Z,12.70
2022-12-24T19:57:27.732Z,12.60
2022-12-24T19:59:54.218Z,12.70
2022-12-24T20:02:21.383Z,12.80
2022-12-24T20:04:47.982Z,12.70
2022-12-24T20:07:14.466Z,12.80
2022-12-24T20:09:40.921Z,12.80
2022-12-24T20:12:07.400Z,12.80
2022-12-24T20:14:33.876Z,12.80
2022-12-24T20:17:00.465Z,12.90
2022-12-24T20:19:27.047Z,12.80
2022-12-24T20:21:53.541Z,12.70
2022-12-24T20:24:20.017Z,12.90
2022-12-24T20:26:46.512Z,12.80
2022-12-24T20:29:12.978Z,12.80
2022-12-24T20:31:39.530Z,12.80
2022-12-24T20:34:06.043Z,12.80
2022-12-24T20:36:32.529Z,12.80
2022-12-24T20:38:59.004Z,12.80
2022-12-24T20:41:25.531Z,12.80
2022-12-24T20:43:52.026Z,12.90
2022-12-24T20:46:18.642Z,12.80
2022-12-24T20:48:45.218Z,12.70
2022-12-24T20:51:12.736Z,12.70
2022-12-24T20:53:41.395Z,12.80
2022-12-24T20:56:07.893Z,12.80
2022-12-24T20:58:34.386Z,12.90
2022-12-24T21:01:00.889Z,12.80
2022-12-24T21:03:27.443Z,12.80
2022-12-24T21:05:53.985Z,12.70
2022-12-24T21:08:20.442Z,12.80
2022-12-24T21:10:46.961Z,12.80
2022-12-24T21:13:13.454Z,12.80
2022-12-24T21:15:39.960Z,12.90
2022-12-24T21:18:06.426Z,12.80
2022-12-24T21:20:32.914Z,12.80
2022-12-24T21:23:01.403Z,12.80
2022-12-24T21:25:28.041Z,12.70
2022-12-24T21:27:54.503Z,12.80
2022-12-24T21:30:20.972Z,12.80
2022-12-24T21:32:49.149Z,12.80
2022-12-24T21:35:15.632Z,12.80
2022-12-24T21:37:42.108Z,12.70
2022-12-24T21:40:08.581Z,12.70
2022-12-24T21:42:35.062Z,12.80
2022-12-24T21:45:01.525Z,12.80
2022-12-24T21:47:27.985Z,12.80
2022-12-24T21:49:54.455Z,12.80
2022-12-24T21:52:20.926Z,12.80
2022-12-24T21:54:47.387Z,12.70
2022-12-24T21:57:13.869Z,12.80
2022-12-24T21:59:40.394Z,12.80
2022-12-24T22:02:07.129Z,12.90
2022-12-24T22:04:33.720Z,12.70
2022-12-24T22:07:00.200Z,12.60
2022-12-24T22:09:26.649Z,12.80
2022-12-24T22:11:54.837Z,12.80
2022-12-24T22:14:21.750Z,12.70
2022-12-24T22:16:48.344Z,12.70
2022-12-24T22:19:14.948Z,12.70
2022-12-24T22:21:41.445Z,12.80
2022-12-24T22:24:07.929Z,12.70
2022-12-24T22:26:34.439Z,12.80
2022-12-24T22:29:00.899Z,12.70
2022-12-24T22:31:27.536Z,12.80
2022-12-24T22:33:54.048Z,12.80
2022-12-24T22:36:20.525Z,12.80
2022-12-24T22:38:47.014Z,12.70
2022-12-24T22:41:13.518Z,12.70
2022-12-24T22:43:39.994Z,12.70
2022-12-24T22:46:06.501Z,12.70
2022-12-24T22:48:33.028Z,12.80
2022-12-24T22:50:59.501Z,12.80
2022-12-24T22:53:25.995Z,12.70
2022-12-24T22:55:52.498Z,12.70
2022-12-24T22:58:18.973Z,12.80
2022-12-24T23:00:45.443Z,12.80
2022-12-24T23:03:12.128Z,12.70
2022-12-24T23:05:38.845Z,12.70
2022-12-24T23:08:05.374Z,12.70
2022-12-24T23:10:31.829Z,12.80
2022-12-24T23:12:58.318Z,12.80
2022-12-24T23:15:24.784Z,12.90
2022-12-24T23:17:51.257Z,12.80
2022-12-24T23:20:17.736Z,12.80
2022-12-24T23:22:44.209Z,12.90
2022-12-24T23:25:10.688Z,12.90
2022-12-24T23:27:37.158Z,12.80
2022-12-24T23:30:03.643Z,12.90
2022-12-24T23:32:30.121Z,12.80
2022-12-24T23:34:56.617Z,12.80
2022-12-24T23:37:23.097Z,12.80
2022-12-24T23:39:49.565Z,12.90
2022-12-24T23:42:16.053Z,12.80
2022-12-24T23:44:42.516Z,12.90
2022-12-24T23:47:08.992Z,12.90
2022-12-24T23:49:35.520Z,12.80
2022-12-24T23:52:02.029Z,12.90
2022-12-24T23:54:28.507Z,12.90
2022-12-24T23:56:54.994Z,12.90
2022-12-24T23:59:21.467Z,12.90
